LSEZ weather

Zermatt Heliport
Zermatt, Canton of Valais, Switzerland

Public forecast

Using degrees Celsius for public forecast. Weather courtesy of forecast.io.

METAR (pilot weather report)

Closest report is Sion Airport, 21.1 nm (39.1 km) WNW. Retrieved 2019/09/24 08:20 UTC (0 seconds ago):

LSGS 240820Z 10005KT 9999 BKN130 12/07 Q1016

TAF (pilot weather forecast)

Forecast is more than 12 hours old.

Closest forecast is Meiringen Airport, 45.3 nm (84.0 km) NNE. Retrieved 2019/09/23 17:00 UTC (15 hours ago):

TAF LSMM 231625Z 2317/2423 11004KT 9999 FEW090 BECMG 2317/2320 CAVOK BECMG 2410/2413 9999 BKN060 PROB40 TEMPO 2415/2422 RA